Terminal Aerodrome Forecast
Issued by NWS Blacksburg, VA

Current Version | Previous Version | Text Only | Print | Product List | Glossary Off
Versions: 1 2 3 4 5 6 7 8 9 10 11 12 13 14 15 16 17 18 19 20 21 22 23 24

000
FTUS41 KRNK 261129
TAFBLF
TAF
KBLF 261129Z 2612/2712 16007KT P6SM OVC045
     FM261600 16010KT P6SM VCSH OVC050
     FM261830 17012KT 4SM -SHRA OVC025
     FM262100 17011KT P6SM BKN040
     FM270000 17009KT 6SM -SHRA BKN035
     FM270200 17008KT P6SM BKN025
     FM270600 18006KT P6SM VCSH BKN030=

USA.gov is the U.S. government's official web portal to all federal, state and local government web resources and services.